Antioch, TX

6:39 AM CST on December 04, 2016 (GMT -0600)
4 miles north of Zephyr, TX on Blanket Creek | | Change Station

Elev 1483 ft 31.73 °N, 98.77 °W | Updated 15 seconds ago

Overcast
Overcast
46.1 °F
Feels Like 43 °F
N
7.0
Wind Variable Wind from North
Gusts 11.0 mph

Today
High -- | Low -- °F
--% Chance of Precip.
Yesterday
High -- | Low -- °F
Precip. -- in
Pressure 30.01 in
Visibility 10.0 miles
Clouds Few 800 ft
Overcast 4300 ft
Windchill 43 °F
Dew Point 45 °F
Humidity 98%
Rainfall 0.03 in
Snow Depth Not available.
7:20 AM 5:30 PM
Waxing Crescent, 22% visible
METAR KBWD 041215Z AUTO 34008KT 10SM FEW008 OVC043 08/08 A3001 RMK AO2
Pressure 30.01 in
Visibility 10.0 miles
Clouds Few 800 ft
Overcast 4300 ft
Windchill 43 °F
Dew Point 45 °F
Humidity 98%
Rainfall 0.03 in
Snow Depth Not available.
7:20 AM 5:30 PM
Waxing Crescent, 22% visible
METAR KBWD 041215Z AUTO 34008KT 10SM FEW008 OVC043 08/08 A3001 RMK AO2

10-Day Weather Forecast

Almanac

Astronomy

Dec. 04, 2016 Rise Set
Actual Time
Civil Twilight
Nautical Twilight
Astronomical Twilight
Moon
Length of Visible Light
Length of Day
Tomorrow will be .
, % of the Moon is Illuminated

Today's Extremes

State Highs State Lows

Community

WunderPhotos

Upload Photos

1,955,593 photos uploaded!

WunderBlog® & News

Nearby

Air Quality

  Air Quality AQ Index Pollutant
Not available.

Snow Depth

Station Depth Elevation

Earthquake Activity

City Distance Mag. Time & Date
Minimum magnitude displayed is 2.5.

Coastal Water Temperatures

Place Temperature

Stations

Nearby Weather Stations

Station Location Temp. Windchill Dew Point Humidity Wind Precip. Elev Updated Type
                   

Watches & Warnings

There are currently no watches in effect.